createdAt,value
2023-02-12T00:02:22.056Z,49.59
2023-02-12T00:04:51.577Z,49.86
2023-02-12T00:07:20.858Z,49.58
2023-02-12T00:09:50.409Z,49.55
2023-02-12T00:12:19.602Z,50.22
2023-02-12T00:14:49.320Z,49.92
2023-02-12T00:17:18.597Z,50.66
2023-02-12T00:19:51.382Z,50.49
2023-02-12T00:22:20.572Z,49.98
2023-02-12T00:24:49.991Z,49.35
2023-02-12T00:27:19.367Z,49.44
2023-02-12T00:29:48.864Z,50.03
2023-02-12T00:32:19.694Z,50.44
2023-02-12T00:34:50.845Z,50.82
2023-02-12T00:37:20.238Z,50.58
2023-02-12T00:39:49.942Z,50.83
2023-02-12T00:42:19.089Z,51.40
2023-02-12T00:44:48.716Z,51.62
2023-02-12T00:47:18.076Z,51.50
2023-02-12T00:49:47.526Z,51.13
2023-02-12T00:52:18.150Z,51.39
2023-02-12T00:54:47.753Z,51.83
2023-02-12T00:57:17.085Z,52.12
2023-02-12T00:59:46.678Z,51.13
2023-02-12T01:02:16.120Z,51.81
2023-02-12T01:04:45.721Z,51.92
2023-02-12T01:07:14.952Z,51.76
2023-02-12T01:09:45.977Z,51.78
2023-02-12T01:12:15.311Z,52.19
2023-02-12T01:14:45.193Z,52.29
2023-02-12T01:17:14.655Z,51.39
2023-02-12T01:19:47.147Z,51.78
2023-02-12T01:22:16.376Z,51.63
2023-02-12T01:24:47.417Z,52.00
2023-02-12T01:27:17.462Z,51.93
2023-02-12T01:29:46.915Z,52.20
2023-02-12T01:32:16.262Z,52.32
2023-02-12T01:34:45.784Z,52.16
2023-02-12T01:37:15.044Z,52.27
2023-02-12T01:39:44.659Z,52.36
2023-02-12T01:42:18.739Z,51.72
2023-02-12T01:45:26.224Z,52.26
2023-02-12T01:47:56.019Z,52.97
2023-02-12T01:50:25.548Z,53.08
2023-02-12T01:52:58.900Z,53.18
2023-02-12T01:55:28.437Z,53.92
2023-02-12T01:57:59.259Z,53.07
2023-02-12T02:00:28.939Z,52.89
2023-02-12T02:03:02.817Z,53.59
2023-02-12T02:05:42.353Z,53.24
2023-02-12T02:08:12.230Z,53.41
2023-02-12T02:10:42.007Z,53.41
2023-02-12T02:13:30.435Z,53.80
2023-02-12T02:16:07.613Z,53.85
2023-02-12T02:18:45.687Z,53.21
2023-02-12T02:21:51.455Z,53.27
2023-02-12T02:25:00.550Z,53.85
2023-02-12T02:27:41.075Z,53.32
2023-02-12T02:30:32.774Z,53.65
2023-02-12T02:33:14.899Z,53.29
2023-02-12T02:35:51.471Z,53.07
2023-02-12T02:38:26.906Z,53.56
2023-02-12T02:41:03.883Z,53.21
2023-02-12T02:43:37.912Z,53.35
2023-02-12T02:46:15.009Z,53.15
2023-02-12T02:48:48.304Z,53.52
2023-02-12T02:51:21.246Z,53.61
2023-02-12T02:53:55.261Z,53.54
2023-02-12T02:56:29.330Z,53.31
2023-02-12T02:59:04.851Z,53.94
2023-02-12T03:01:41.318Z,53.55
2023-02-12T03:04:15.067Z,53.34
2023-02-12T03:06:51.966Z,53.21
2023-02-12T03:09:27.444Z,53.65
2023-02-12T03:12:00.829Z,53.49
2023-02-12T03:14:33.543Z,53.67
2023-02-12T03:17:08.045Z,53.30
2023-02-12T03:19:42.711Z,53.27
2023-02-12T03:22:15.593Z,53.02
2023-02-12T03:24:49.538Z,53.79
2023-02-12T03:27:22.708Z,53.64
2023-02-12T03:29:53.094Z,53.64
2023-02-12T03:33:47.066Z,53.63
2023-02-12T03:36:26.789Z,53.37
2023-02-12T03:38:58.855Z,53.67
2023-02-12T03:41:35.146Z,53.37
2023-02-12T03:44:11.696Z,54.17
2023-02-12T03:46:48.206Z,53.99
2023-02-12T03:49:24.670Z,55.14
2023-02-12T03:51:55.630Z,53.79
2023-02-12T03:54:25.659Z,53.83
2023-02-12T03:56:58.938Z,53.71
2023-02-12T03:59:28.749Z,54.39
2023-02-12T04:02:00.915Z,54.21
2023-02-12T04:04:30.928Z,54.10
2023-02-12T04:07:02.299Z,53.30
2023-02-12T04:09:33.603Z,53.84
2023-02-12T04:12:31.861Z,53.63
2023-02-12T04:15:25.659Z,54.30
2023-02-12T04:18:06.124Z,54.01
2023-02-12T04:20:49.007Z,53.62
2023-02-12T04:23:32.726Z,53.72
2023-02-12T04:26:12.165Z,53.82
2023-02-12T04:28:49.368Z,53.99
2023-02-12T04:31:30.681Z,54.68
2023-02-12T04:34:08.816Z,55.46
2023-02-12T04:36:46.243Z,53.91
2023-02-12T04:39:23.390Z,54.30
2023-02-12T04:41:53.446Z,54.03
2023-02-12T04:44:26.720Z,54.39
2023-02-12T04:46:56.028Z,54.53
2023-02-12T04:49:26.466Z,54.67
2023-02-12T04:51:55.870Z,54.63
2023-02-12T04:54:26.975Z,54.16
2023-02-12T04:56:56.256Z,53.99
2023-02-12T04:59:25.797Z,54.60
2023-02-12T05:01:55.057Z,54.54
2023-02-12T05:04:24.564Z,53.95
2023-02-12T05:06:53.713Z,53.92
2023-02-12T05:09:23.446Z,53.93
2023-02-12T05:11:54.091Z,54.07
2023-02-12T05:14:26.114Z,53.88
2023-02-12T05:16:55.436Z,53.56
2023-02-12T05:19:25.055Z,54.44
2023-02-12T05:21:54.304Z,53.75
2023-02-12T05:24:23.893Z,54.29
2023-02-12T05:26:54.602Z,54.26
2023-02-12T05:29:24.026Z,54.70
2023-02-12T05:31:53.532Z,54.16
2023-02-12T05:34:23.165Z,53.57
2023-02-12T05:36:52.328Z,54.76
2023-02-12T05:39:21.956Z,53.87
2023-02-12T05:41:51.165Z,53.25
2023-02-12T05:44:22.203Z,54.18
2023-02-12T05:46:51.457Z,53.33
2023-02-12T05:49:21.088Z,53.94
2023-02-12T05:51:50.425Z,54.34
2023-02-12T05:54:19.948Z,53.41
2023-02-12T05:56:49.890Z,53.78
2023-02-12T05:59:22.690Z,53.79
2023-02-12T06:01:53.192Z,54.47
2023-02-12T06:04:26.243Z,54.24
2023-02-12T06:06:56.868Z,54.22
2023-02-12T06:09:26.508Z,54.21
2023-02-12T06:11:55.774Z,54.18
2023-02-12T06:14:26.413Z,53.99
2023-02-12T06:16:55.938Z,54.16
2023-02-12T06:19:25.719Z,53.98
2023-02-12T06:21:55.253Z,54.87
2023-02-12T06:24:24.640Z,55.19
2023-02-12T06:26:54.461Z,54.99
2023-02-12T06:29:25.529Z,54.85
2023-02-12T06:31:55.288Z,54.83
2023-02-12T06:34:24.839Z,54.82
2023-02-12T06:36:54.386Z,54.55
2023-02-12T06:39:23.621Z,54.69
2023-02-12T06:41:53.229Z,55.39
2023-02-12T06:44:22.537Z,55.60
2023-02-12T06:46:53.737Z,54.81
2023-02-12T06:49:23.001Z,54.32
2023-02-12T06:51:52.547Z,54.28
2023-02-12T06:54:21.888Z,54.49
2023-02-12T06:56:51.574Z,53.93
2023-02-12T06:59:21.215Z,54.31
2023-02-12T07:01:52.245Z,54.86
2023-02-12T07:04:21.636Z,53.72
2023-02-12T07:06:52.310Z,53.73
2023-02-12T07:09:21.567Z,53.47
2023-02-12T07:11:52.222Z,53.67
2023-02-12T07:14:21.624Z,53.96
2023-02-12T07:16:52.597Z,53.40
2023-02-12T07:19:21.761Z,53.41
2023-02-12T07:21:51.566Z,53.05
2023-02-12T07:24:20.824Z,53.00
2023-02-12T07:26:50.366Z,52.76
2023-02-12T07:29:19.540Z,52.33
2023-02-12T07:31:49.287Z,52.26
2023-02-12T07:34:20.277Z,52.46
2023-02-12T07:36:49.870Z,52.37
2023-02-12T07:39:19.094Z,52.22
2023-02-12T07:41:48.556Z,52.65
2023-02-12T07:44:17.861Z,52.27
2023-02-12T07:46:49.156Z,52.06
2023-02-12T07:49:24.403Z,51.77
2023-02-12T07:51:55.666Z,51.64
2023-02-12T07:54:25.164Z,51.56
2023-02-12T07:56:55.034Z,52.18
2023-02-12T07:59:24.339Z,51.60
2023-02-12T08:01:57.224Z,51.24
2023-02-12T08:04:28.205Z,51.40
2023-02-12T08:06:58.609Z,52.18
2023-02-12T08:09:30.963Z,52.05
2023-02-12T08:12:00.766Z,51.71
2023-02-12T08:14:30.408Z,51.66
2023-02-12T08:16:59.940Z,50.51
2023-02-12T08:19:30.622Z,51.87
2023-02-12T08:22:02.326Z,52.09
2023-02-12T08:24:32.029Z,51.06
2023-02-12T08:27:01.724Z,50.92
2023-02-12T08:29:32.144Z,50.66
2023-02-12T08:32:03.264Z,49.85
2023-02-12T08:34:35.566Z,49.52
2023-02-12T08:37:07.731Z,50.85
2023-02-12T08:39:37.260Z,51.99
2023-02-12T08:42:07.006Z,53.20
2023-02-12T08:44:36.825Z,52.52
2023-02-12T08:47:07.310Z,52.27
2023-02-12T08:49:38.252Z,52.23
2023-02-12T08:52:07.878Z,52.25
2023-02-12T08:54:37.145Z,52.57
2023-02-12T08:57:07.023Z,52.17
2023-02-12T08:59:36.217Z,52.69
2023-02-12T09:02:08.872Z,51.36
2023-02-12T09:04:41.108Z,50.43
2023-02-12T09:07:11.057Z,50.31
2023-02-12T09:09:40.406Z,50.99
2023-02-12T09:12:10.111Z,52.60
2023-02-12T09:14:39.722Z,50.28
2023-02-12T09:17:09.428Z,50.16
2023-02-12T09:19:40.385Z,50.92
2023-02-12T09:22:09.877Z,49.79
2023-02-12T09:24:39.445Z,53.45
2023-02-12T09:27:09.067Z,50.55
2023-02-12T09:29:38.450Z,48.47
2023-02-12T09:32:09.387Z,48.12
2023-02-12T09:34:40.145Z,48.36
2023-02-12T09:37:09.751Z,47.85
2023-02-12T09:39:39.265Z,47.75
2023-02-12T09:42:39.261Z,48.34
2023-02-12T09:45:18.234Z,49.24
2023-02-12T09:47:56.536Z,48.34
2023-02-12T09:50:44.828Z,49.86
2023-02-12T09:53:17.879Z,48.62
2023-02-12T09:55:47.661Z,47.95
2023-02-12T09:58:35.636Z,47.39
2023-02-12T10:01:14.048Z,48.66
2023-02-12T10:03:45.212Z,48.43
2023-02-12T10:06:20.301Z,48.93
2023-02-12T10:09:09.366Z,46.67
2023-02-12T10:11:53.219Z,47.79
2023-02-12T10:14:52.460Z,47.88
2023-02-12T10:17:30.986Z,47.34
2023-02-12T10:20:40.386Z,47.61
2023-02-12T10:23:26.504Z,47.85
2023-02-12T10:25:59.205Z,50.13
2023-02-12T10:28:34.527Z,47.79
2023-02-12T10:31:09.054Z,49.23
2023-02-12T10:33:43.706Z,46.84
2023-02-12T10:36:25.345Z,45.21
2023-02-12T10:39:02.561Z,46.76
2023-02-12T10:41:39.484Z,45.54
2023-02-12T10:44:10.639Z,45.98
2023-02-12T10:46:40.302Z,47.61
2023-02-12T10:49:12.842Z,46.87
2023-02-12T10:51:58.574Z,45.97
2023-02-12T10:54:38.682Z,46.12
2023-02-12T10:57:20.077Z,46.46
2023-02-12T10:59:50.868Z,43.65
2023-02-12T11:02:26.609Z,42.76
2023-02-12T11:04:56.508Z,42.74
2023-02-12T11:07:27.452Z,43.68
2023-02-12T11:09:58.979Z,42.24
2023-02-12T11:12:35.917Z,40.02
2023-02-12T11:15:09.004Z,40.83
2023-02-12T11:17:40.743Z,39.40
2023-02-12T11:20:24.299Z,35.75
2023-02-12T11:22:56.447Z,39.30
2023-02-12T11:25:29.207Z,41.18
2023-02-12T11:28:14.323Z,37.55
2023-02-12T11:30:58.462Z,37.74
2023-02-12T11:33:32.493Z,40.71
2023-02-12T11:36:07.228Z,42.43
2023-02-12T11:38:38.784Z,41.40
2023-02-12T11:41:25.578Z,40.78
2023-02-12T11:43:55.461Z,40.68
2023-02-12T11:46:28.167Z,40.87
2023-02-12T11:49:00.874Z,40.46
2023-02-12T11:51:33.023Z,38.85
2023-02-12T11:54:06.376Z,41.91
2023-02-12T11:56:46.162Z,39.70
2023-02-12T11:59:33.345Z,41.81
2023-02-12T12:02:17.216Z,41.00
2023-02-12T12:04:51.394Z,40.57
2023-02-12T12:07:26.532Z,39.10
2023-02-12T12:09:59.641Z,40.23
2023-02-12T12:12:38.655Z,37.12
2023-02-12T12:15:34.894Z,40.59
2023-02-12T12:18:29.807Z,43.30
2023-02-12T12:21:11.196Z,46.68
2023-02-12T12:23:45.795Z,46.99
2023-02-12T12:26:25.130Z,47.21
2023-02-12T12:29:02.804Z,47.91
2023-02-12T12:31:36.036Z,50.00
2023-02-12T12:34:10.194Z,48.14
2023-02-12T12:37:24.159Z,47.38
2023-02-12T12:40:11.835Z,50.08
2023-02-12T12:43:03.601Z,52.74
2023-02-12T12:46:05.299Z,51.41
2023-02-12T12:48:49.420Z,52.18
2023-02-12T12:51:41.213Z,51.08
2023-02-12T12:54:26.912Z,50.67
2023-02-12T12:57:06.321Z,52.30
2023-02-12T13:00:14.826Z,53.28
2023-02-12T13:03:18.029Z,53.62
2023-02-12T13:06:26.748Z,53.16
2023-02-12T13:09:30.286Z,57.26
2023-02-12T13:12:29.477Z,56.99
2023-02-12T13:15:05.603Z,55.96
2023-02-12T13:17:45.976Z,54.98
2023-02-12T13:20:23.478Z,54.85
2023-02-12T13:22:58.818Z,54.35
2023-02-12T13:25:33.298Z,56.79
2023-02-12T13:28:06.695Z,57.06
2023-02-12T13:30:44.414Z,58.70
2023-02-12T13:33:21.257Z,56.68
2023-02-12T13:35:56.812Z,54.94
2023-02-12T13:38:30.022Z,55.11
2023-02-12T13:41:03.445Z,57.27
2023-02-12T13:43:45.611Z,57.91
2023-02-12T13:46:22.817Z,58.19
2023-02-12T13:49:02.042Z,58.16
2023-02-12T13:51:43.095Z,58.75
2023-02-12T13:54:31.337Z,58.12
2023-02-12T13:57:03.517Z,59.11
2023-02-12T13:59:53.781Z,59.45
2023-02-12T14:02:53.714Z,59.92
2023-02-12T14:05:27.281Z,59.59
2023-02-12T14:08:00.622Z,57.49
2023-02-12T14:10:35.935Z,59.18
2023-02-12T14:13:17.670Z,59.96
2023-02-12T14:15:51.554Z,59.50
2023-02-12T14:18:36.001Z,60.15
2023-02-12T14:21:38.920Z,59.15
2023-02-12T14:24:52.749Z,59.00
2023-02-12T14:27:37.592Z,58.98
2023-02-12T14:30:31.607Z,58.55
2023-02-12T14:33:25.936Z,57.26
2023-02-12T14:36:15.367Z,56.30
2023-02-12T14:39:05.533Z,57.94
2023-02-12T14:41:39.017Z,58.61
2023-02-12T14:44:42.036Z,57.10
2023-02-12T14:47:44.182Z,58.50
2023-02-12T14:50:24.736Z,56.67
2023-02-12T14:53:00.187Z,58.88
2023-02-12T14:55:32.581Z,58.93
2023-02-12T14:58:06.749Z,58.94
2023-02-12T15:00:42.055Z,59.63
2023-02-12T15:03:25.333Z,57.87
2023-02-12T15:06:11.348Z,57.82
2023-02-12T15:08:48.723Z,55.66
2023-02-12T15:11:36.844Z,55.39
2023-02-12T15:14:14.109Z,54.75
2023-02-12T15:16:52.708Z,55.00
2023-02-12T15:19:39.376Z,55.51
2023-02-12T15:22:21.767Z,57.03
2023-02-12T15:24:51.454Z,56.88
2023-02-12T15:27:22.255Z,57.57
2023-02-12T15:29:54.734Z,56.61
2023-02-12T15:32:28.621Z,59.34
2023-02-12T15:34:58.537Z,59.89
2023-02-12T15:37:31.033Z,59.77
2023-02-12T15:40:03.838Z,57.98
2023-02-12T15:42:35.654Z,57.56
2023-02-12T15:45:21.748Z,55.75
2023-02-12T15:48:02.120Z,56.00
2023-02-12T15:50:33.350Z,58.54
2023-02-12T15:53:04.366Z,57.14
2023-02-12T15:55:41.422Z,58.49
2023-02-12T15:58:22.904Z,58.04
2023-02-12T16:00:56.098Z,58.13
2023-02-12T16:03:34.063Z,58.01
2023-02-12T16:06:11.284Z,60.16
2023-02-12T16:08:41.800Z,58.50
2023-02-12T16:11:16.842Z,57.94
2023-02-12T16:13:49.003Z,58.73
2023-02-12T16:16:25.104Z,59.01
2023-02-12T16:19:17.538Z,58.17
2023-02-12T16:21:49.375Z,58.51
2023-02-12T16:24:32.927Z,58.00
2023-02-12T16:27:08.788Z,55.44
2023-02-12T16:29:46.752Z,55.50
2023-02-12T16:32:32.164Z,57.50
2023-02-12T16:35:05.408Z,57.45
2023-02-12T16:37:47.219Z,57.51
2023-02-12T16:40:30.648Z,54.56
2023-02-12T16:43:03.456Z,53.55
2023-02-12T16:45:39.175Z,54.82
2023-02-12T16:48:23.441Z,55.56
2023-02-12T16:50:55.896Z,55.07
2023-02-12T16:53:47.312Z,55.55
2023-02-12T16:56:21.268Z,55.77
2023-02-12T16:58:54.714Z,54.94
2023-02-12T17:01:27.689Z,54.56
2023-02-12T17:03:59.462Z,54.77
2023-02-12T17:06:31.035Z,54.85
2023-02-12T17:09:01.155Z,56.13
2023-02-12T17:11:31.129Z,55.40
2023-02-12T17:14:00.829Z,54.96
2023-02-12T17:16:32.066Z,54.68
2023-02-12T17:19:03.255Z,56.28
2023-02-12T17:21:38.313Z,56.48
2023-02-12T17:24:10.224Z,56.52
2023-02-12T17:26:40.060Z,57.80
2023-02-12T17:29:09.372Z,58.24
2023-02-12T17:31:39.012Z,60.87
2023-02-12T17:34:09.919Z,58.76
2023-02-12T17:36:40.203Z,58.78
2023-02-12T17:39:10.651Z,57.59
2023-02-12T17:41:40.914Z,58.77
2023-02-12T17:44:11.979Z,59.37
2023-02-12T17:46:42.107Z,58.07
2023-02-12T17:49:13.369Z,59.92
2023-02-12T17:51:43.249Z,58.76
2023-02-12T17:54:14.032Z,58.37
2023-02-12T17:56:43.826Z,59.13
2023-02-12T17:59:13.433Z,57.85
2023-02-12T18:01:43.330Z,55.75
2023-02-12T18:04:14.225Z,56.95
2023-02-12T18:06:45.151Z,57.06
2023-02-12T18:09:14.898Z,58.36
2023-02-12T18:11:44.558Z,57.54
2023-02-12T18:14:14.408Z,56.69
2023-02-12T18:16:44.082Z,56.45
2023-02-12T18:19:14.930Z,55.86
2023-02-12T18:21:44.715Z,58.46
2023-02-12T18:24:14.890Z,56.71
2023-02-12T18:26:45.458Z,56.25
2023-02-12T18:29:15.080Z,55.60
2023-02-12T18:31:44.998Z,56.29
2023-02-12T18:34:15.656Z,56.56
2023-02-12T18:36:45.672Z,56.34
2023-02-12T18:39:14.962Z,56.81
2023-02-12T18:41:45.089Z,54.55
2023-02-12T18:44:14.900Z,56.11
2023-02-12T18:46:44.633Z,56.00
2023-02-12T18:49:16.849Z,55.58
2023-02-12T18:51:46.510Z,56.07
2023-02-12T18:54:16.781Z,56.19
2023-02-12T18:56:48.262Z,55.45
2023-02-12T18:59:18.995Z,56.42
2023-02-12T19:01:50.786Z,57.10
2023-02-12T19:04:23.847Z,56.34
2023-02-12T19:06:55.622Z,56.57
2023-02-12T19:09:29.113Z,56.04
2023-02-12T19:12:01.538Z,57.15
2023-02-12T19:14:31.580Z,57.13
2023-02-12T19:17:01.514Z,56.11
2023-02-12T19:19:32.472Z,54.83
2023-02-12T19:22:02.023Z,56.69
2023-02-12T19:24:44.696Z,56.21
2023-02-12T19:27:16.172Z,56.04
2023-02-12T19:29:45.828Z,56.92
2023-02-12T19:32:15.564Z,54.62
2023-02-12T19:34:46.590Z,56.46
2023-02-12T19:37:16.655Z,56.40
2023-02-12T19:39:46.971Z,54.56
2023-02-12T19:42:17.679Z,53.90
2023-02-12T19:44:47.634Z,55.89
2023-02-12T19:47:17.892Z,54.73
2023-02-12T19:49:48.581Z,55.15
2023-02-12T19:52:18.273Z,54.05
2023-02-12T19:54:47.586Z,53.87
2023-02-12T19:57:17.249Z,53.71
2023-02-12T19:59:47.105Z,56.02
2023-02-12T20:02:16.772Z,55.87
2023-02-12T20:04:47.758Z,53.90
2023-02-12T20:07:17.207Z,53.15
2023-02-12T20:09:46.762Z,54.55
2023-02-12T20:12:16.685Z,55.99
2023-02-12T20:14:46.169Z,56.00
2023-02-12T20:17:15.919Z,56.20
2023-02-12T20:19:45.681Z,55.20
2023-02-12T20:22:17.058Z,55.91
2023-02-12T20:24:46.464Z,56.17
2023-02-12T20:27:16.319Z,54.86
2023-02-12T20:29:45.838Z,54.34
2023-02-12T20:32:15.677Z,54.73
2023-02-12T20:34:50.856Z,55.64
2023-02-12T20:37:21.924Z,56.52
2023-02-12T20:39:51.370Z,55.48
2023-02-12T20:42:21.080Z,56.41
2023-02-12T20:44:50.481Z,54.21
2023-02-12T20:47:23.268Z,54.20
2023-02-12T20:49:52.688Z,55.49
2023-02-12T20:52:24.108Z,54.71
2023-02-12T20:54:53.418Z,54.27
2023-02-12T20:57:22.899Z,54.10
2023-02-12T20:59:52.119Z,54.30
2023-02-12T21:02:22.260Z,54.43
2023-02-12T21:04:52.521Z,53.84
2023-02-12T21:07:24.448Z,54.14
2023-02-12T21:09:56.767Z,53.68
2023-02-12T21:12:26.446Z,54.87
2023-02-12T21:14:55.714Z,54.99
2023-02-12T21:17:25.315Z,54.45
2023-02-12T21:19:54.581Z,55.24
2023-02-12T21:22:25.527Z,54.95
2023-02-12T21:24:54.943Z,54.21
2023-02-12T21:27:24.537Z,54.47
2023-02-12T21:29:53.872Z,53.90
2023-02-12T21:32:23.705Z,55.20
2023-02-12T21:34:53.095Z,54.67
2023-02-12T21:37:24.194Z,54.67
2023-02-12T21:39:53.403Z,54.90
2023-02-12T21:42:23.126Z,54.75
2023-02-12T21:44:52.789Z,55.08
2023-02-12T21:47:22.200Z,57.13
2023-02-12T21:49:52.100Z,55.17
2023-02-12T21:52:21.774Z,56.72
2023-02-12T21:54:53.597Z,55.44
2023-02-12T21:57:23.804Z,55.55
2023-02-12T21:59:53.133Z,56.12
2023-02-12T22:02:22.821Z,57.26
2023-02-12T22:04:54.819Z,56.76
2023-02-12T22:07:24.494Z,56.17
2023-02-12T22:09:57.434Z,57.62
2023-02-12T22:12:30.359Z,56.10
2023-02-12T22:14:59.655Z,56.95
2023-02-12T22:17:29.138Z,56.35
2023-02-12T22:19:58.367Z,57.15
2023-02-12T22:22:28.112Z,56.17
2023-02-12T22:24:58.725Z,57.29
2023-02-12T22:27:28.234Z,57.22
2023-02-12T22:29:57.607Z,55.39
2023-02-12T22:32:27.893Z,55.50
2023-02-12T22:34:57.129Z,56.83
2023-02-12T22:37:26.665Z,56.14
2023-02-12T22:39:57.631Z,56.97
2023-02-12T22:42:27.158Z,57.40
2023-02-12T22:44:56.412Z,55.47
2023-02-12T22:47:26.199Z,57.12
2023-02-12T22:49:55.709Z,57.98
2023-02-12T22:52:25.194Z,56.23
2023-02-12T22:54:54.477Z,56.92
2023-02-12T22:57:25.539Z,55.58
2023-02-12T22:59:55.210Z,57.31
2023-02-12T23:02:24.757Z,56.82
2023-02-12T23:04:54.062Z,57.10
2023-02-12T23:07:23.647Z,56.60
2023-02-12T23:09:52.824Z,55.48
2023-02-12T23:12:22.472Z,55.41
2023-02-12T23:14:53.011Z,55.63
2023-02-12T23:17:22.584Z,57.08
2023-02-12T23:19:51.814Z,56.60
2023-02-12T23:22:21.427Z,56.06
2023-02-12T23:24:51.101Z,55.22
2023-02-12T23:27:20.803Z,54.59
2023-02-12T23:29:50.043Z,54.54
2023-02-12T23:32:20.995Z,55.16
2023-02-12T23:34:50.178Z,55.37
2023-02-12T23:37:19.786Z,57.80
2023-02-12T23:39:48.935Z,56.74
2023-02-12T23:42:19.213Z,57.42
2023-02-12T23:44:48.402Z,55.41
2023-02-12T23:47:19.288Z,56.75
2023-02-12T23:49:48.514Z,55.72
2023-02-12T23:52:17.920Z,56.86
2023-02-12T23:54:47.251Z,56.90
2023-02-12T23:57:16.808Z,57.69
2023-02-12T23:59:46.017Z,57.99
